sensor_id;sensor_type;location;lat;lon;timestamp;pressure;altitude;pressure_sealevel;temperature;humidity
20003;BME280;10162;41.600;23.806;2023-06-01T00:03:43;95315.56;;;12.22;100.00
20003;BME280;10162;41.600;23.806;2023-06-01T00:06:09;95319.97;;;12.21;100.00
20003;BME280;10162;41.600;23.806;2023-06-01T00:08:38;95314.13;;;12.19;100.00
20003;BME280;10162;41.600;23.806;2023-06-01T00:11:17;95309.88;;;12.25;100.00
20003;BME280;10162;41.600;23.806;2023-06-01T00:13:42;95315.50;;;12.02;100.00
20003;BME280;10162;41.600;23.806;2023-06-01T00:16:08;95321.63;;;11.62;100.00
20003;BME280;10162;41.600;23.806;2023-06-01T00:18:35;95319.81;;;11.69;100.00
20003;BME280;10162;41.600;23.806;2023-06-01T00:21:30;95349.72;;;11.81;100.00
20003;BME280;10162;41.600;23.806;2023-06-01T00:23:58;95336.47;;;11.95;100.00
20003;BME280;10162;41.600;23.806;2023-06-01T00:26:24;95335.44;;;11.90;100.00
20003;BME280;10162;41.600;23.806;2023-06-01T00:28:54;95338.06;;;11.90;100.00
20003;BME280;10162;41.600;23.806;2023-06-01T00:34:54;95321.34;;;11.97;100.00
20003;BME280;10162;41.600;23.806;2023-06-01T00:37:21;95345.16;;;12.09;100.00
20003;BME280;10162;41.600;23.806;2023-06-01T00:39:46;95327.59;;;11.90;100.00
20003;BME280;10162;41.600;23.806;2023-06-01T00:42:21;95350.59;;;12.08;100.00
20003;BME280;10162;41.600;23.806;2023-06-01T00:44:47;95322.34;;;11.90;100.00
20003;BME280;10162;41.600;23.806;2023-06-01T00:47:14;95341.75;;;12.22;100.00
20003;BME280;10162;41.600;23.806;2023-06-01T00:49:40;95324.19;;;11.96;100.00
20003;BME280;10162;41.600;23.806;2023-06-01T00:52:06;95316.50;;;11.94;100.00
20003;BME280;10162;41.600;23.806;2023-06-01T00:54:33;95315.56;;;11.68;100.00
20003;BME280;10162;41.600;23.806;2023-06-01T00:56:59;95354.50;;;11.71;100.00
20003;BME280;10162;41.600;23.806;2023-06-01T00:59:25;95341.38;;;11.64;100.00
20003;BME280;10162;41.600;23.806;2023-06-01T01:05:45;95359.59;;;11.79;100.00
20003;BME280;10162;41.600;23.806;2023-06-01T01:08:37;95344.94;;;11.50;100.00
20003;BME280;10162;41.600;23.806;2023-06-01T01:11:15;95348.81;;;11.60;100.00
20003;BME280;10162;41.600;23.806;2023-06-01T01:13:50;95363.72;;;11.60;100.00
20003;BME280;10162;41.600;23.806;2023-06-01T01:16:29;95372.06;;;11.77;100.00
20003;BME280;10162;41.600;23.806;2023-06-01T01:19:08;95337.06;;;11.43;100.00
20003;BME280;10162;41.600;23.806;2023-06-01T01:21:42;95342.84;;;11.73;100.00
20003;BME280;10162;41.600;23.806;2023-06-01T01:30:41;95367.19;;;11.67;100.00
20003;BME280;10162;41.600;23.806;2023-06-01T01:33:10;95361.50;;;11.64;100.00
20003;BME280;10162;41.600;23.806;2023-06-01T01:35:36;95358.50;;;11.26;100.00
20003;BME280;10162;41.600;23.806;2023-06-01T01:38:04;95348.66;;;11.28;100.00
20003;BME280;10162;41.600;23.806;2023-06-01T01:40:42;95345.66;;;11.31;100.00
20003;BME280;10162;41.600;23.806;2023-06-01T01:43:08;95350.75;;;11.04;100.00
20003;BME280;10162;41.600;23.806;2023-06-01T01:45:34;95342.94;;;11.17;100.00
20003;BME280;10162;41.600;23.806;2023-06-01T01:48:19;95357.22;;;11.49;100.00
20003;BME280;10162;41.600;23.806;2023-06-01T01:51:14;95366.25;;;11.81;100.00
20003;BME280;10162;41.600;23.806;2023-06-01T01:53:44;95337.69;;;11.52;100.00
20003;BME280;10162;41.600;23.806;2023-06-01T01:56:12;95348.25;;;11.72;100.00
20003;BME280;10162;41.600;23.806;2023-06-01T01:58:40;95352.88;;;11.70;100.00
20003;BME280;10162;41.600;23.806;2023-06-01T02:01:39;95363.88;;;11.52;100.00
20003;BME280;10162;41.600;23.806;2023-06-01T02:04:10;95349.63;;;11.68;100.00
20003;BME280;10162;41.600;23.806;2023-06-01T02:06:36;95347.56;;;11.50;100.00
20003;BME280;10162;41.600;23.806;2023-06-01T02:09:05;95359.94;;;11.35;100.00
20003;BME280;10162;41.600;23.806;2023-06-01T02:12:05;95368.22;;;11.73;100.00
20003;BME280;10162;41.600;23.806;2023-06-01T02:14:32;95340.13;;;11.53;100.00
20003;BME280;10162;41.600;23.806;2023-06-01T02:16:58;95355.34;;;11.37;100.00
20003;BME280;10162;41.600;23.806;2023-06-01T02:19:29;95337.22;;;11.01;100.00
20003;BME280;10162;41.600;23.806;2023-06-01T02:25:49;95355.13;;;11.32;100.00
20003;BME280;10162;41.600;23.806;2023-06-01T02:28:14;95351.78;;;11.10;100.00
20003;BME280;10162;41.600;23.806;2023-06-01T02:34:34;95365.19;;;11.00;100.00
20003;BME280;10162;41.600;23.806;2023-06-01T02:37:02;95357.59;;;11.12;100.00
20003;BME280;10162;41.600;23.806;2023-06-01T02:39:27;95370.69;;;11.12;100.00
20003;BME280;10162;41.600;23.806;2023-06-01T02:44:52;95376.59;;;11.21;100.00
20003;BME280;10162;41.600;23.806;2023-06-01T02:47:18;95355.25;;;10.89;100.00
20003;BME280;10162;41.600;23.806;2023-06-01T02:49:44;95383.13;;;11.03;100.00
20003;BME280;10162;41.600;23.806;2023-06-01T02:52:46;95388.53;;;11.30;100.00
20003;BME280;10162;41.600;23.806;2023-06-01T02:55:12;95374.31;;;10.83;100.00
20003;BME280;10162;41.600;23.806;2023-06-01T02:57:55;95362.22;;;10.75;100.00
20003;BME280;10162;41.600;23.806;2023-06-01T03:00:46;95387.59;;;11.09;100.00
20003;BME280;10162;41.600;23.806;2023-06-01T03:03:12;95389.53;;;10.73;100.00
20003;BME280;10162;41.600;23.806;2023-06-01T03:05:38;95387.84;;;10.87;100.00
20003;BME280;10162;41.600;23.806;2023-06-01T03:08:25;95391.09;;;10.95;100.00
20003;BME280;10162;41.600;23.806;2023-06-01T03:14:46;95400.47;;;11.11;100.00
20003;BME280;10162;41.600;23.806;2023-06-01T03:17:12;95399.41;;;10.99;100.00
20003;BME280;10162;41.600;23.806;2023-06-01T03:19:38;95382.41;;;10.88;100.00
20003;BME280;10162;41.600;23.806;2023-06-01T03:22:31;95392.91;;;10.95;100.00
20003;BME280;10162;41.600;23.806;2023-06-01T03:24:57;95390.28;;;10.95;100.00
20003;BME280;10162;41.600;23.806;2023-06-01T03:27:28;95390.00;;;10.83;100.00
20003;BME280;10162;41.600;23.806;2023-06-01T03:29:53;95390.81;;;11.11;100.00
20003;BME280;10162;41.600;23.806;2023-06-01T03:35:40;95399.72;;;11.51;100.00
20003;BME280;10162;41.600;23.806;2023-06-01T03:38:06;95399.88;;;11.43;100.00
20003;BME280;10162;41.600;23.806;2023-06-01T03:44:26;95415.00;;;11.82;100.00
20003;BME280;10162;41.600;23.806;2023-06-01T03:46:53;95397.06;;;11.79;100.00
20003;BME280;10162;41.600;23.806;2023-06-01T03:49:19;95405.84;;;12.06;100.00
20003;BME280;10162;41.600;23.806;2023-06-01T03:52:19;95415.56;;;12.19;100.00
20003;BME280;10162;41.600;23.806;2023-06-01T03:54:46;95406.44;;;12.08;100.00
20003;BME280;10162;41.600;23.806;2023-06-01T03:57:32;95408.69;;;12.18;100.00
20003;BME280;10162;41.600;23.806;2023-06-01T03:59:58;95408.09;;;12.22;100.00
20003;BME280;10162;41.600;23.806;2023-06-01T04:05:47;95428.94;;;12.50;100.00
20003;BME280;10162;41.600;23.806;2023-06-01T04:08:15;95411.41;;;12.57;100.00
20003;BME280;10162;41.600;23.806;2023-06-01T04:13:34;95404.31;;;12.45;100.00
20003;BME280;10162;41.600;23.806;2023-06-01T04:16:00;95423.50;;;12.65;100.00
20003;BME280;10162;41.600;23.806;2023-06-01T04:18:26;95420.69;;;12.66;100.00
20003;BME280;10162;41.600;23.806;2023-06-01T04:23:57;95430.97;;;12.68;100.00
20003;BME280;10162;41.600;23.806;2023-06-01T04:26:23;95423.50;;;12.52;100.00
20003;BME280;10162;41.600;23.806;2023-06-01T04:28:51;95407.53;;;12.53;100.00
20003;BME280;10162;41.600;23.806;2023-06-01T04:32:01;95449.75;;;12.71;100.00
20003;BME280;10162;41.600;23.806;2023-06-01T04:34:28;95437.25;;;13.00;100.00
20003;BME280;10162;41.600;23.806;2023-06-01T04:36:55;95423.72;;;12.63;100.00
20003;BME280;10162;41.600;23.806;2023-06-01T04:39:22;95436.06;;;13.09;100.00
20003;BME280;10162;41.600;23.806;2023-06-01T04:45:41;95443.13;;;13.28;100.00
20003;BME280;10162;41.600;23.806;2023-06-01T04:48:07;95442.53;;;13.19;100.00
20003;BME280;10162;41.600;23.806;2023-06-01T04:50:58;95444.13;;;13.40;100.00
20003;BME280;10162;41.600;23.806;2023-06-01T04:53:25;95450.19;;;13.34;100.00
20003;BME280;10162;41.600;23.806;2023-06-01T04:59:46;95442.03;;;13.75;100.00
20003;BME280;10162;41.600;23.806;2023-06-01T05:05:12;95435.03;;;13.43;100.00
20003;BME280;10162;41.600;23.806;2023-06-01T05:07:38;95459.88;;;13.40;100.00
20003;BME280;10162;41.600;23.806;2023-06-01T05:14:13;95449.28;;;13.93;100.00
20003;BME280;10162;41.600;23.806;2023-06-01T05:16:39;95447.50;;;13.67;100.00
20003;BME280;10162;41.600;23.806;2023-06-01T05:19:05;95450.13;;;13.80;100.00
20003;BME280;10162;41.600;23.806;2023-06-01T05:21:38;95432.41;;;13.43;100.00
20003;BME280;10162;41.600;23.806;2023-06-01T05:24:06;95456.28;;;14.12;100.00
20003;BME280;10162;41.600;23.806;2023-06-01T05:26:32;95447.34;;;14.64;100.00
20003;BME280;10162;41.600;23.806;2023-06-01T05:28:57;95451.81;;;14.95;100.00
20003;BME280;10162;41.600;23.806;2023-06-01T05:31:26;95439.94;;;14.86;100.00
20003;BME280;10162;41.600;23.806;2023-06-01T05:33:55;95443.53;;;14.92;100.00
20003;BME280;10162;41.600;23.806;2023-06-01T05:36:21;95441.72;;;15.17;100.00
20003;BME280;10162;41.600;23.806;2023-06-01T05:38:47;95464.75;;;15.21;100.00
20003;BME280;10162;41.600;23.806;2023-06-01T05:41:14;95461.28;;;15.03;100.00
20003;BME280;10162;41.600;23.806;2023-06-01T05:43:41;95461.63;;;15.38;100.00
20003;BME280;10162;41.600;23.806;2023-06-01T05:46:07;95435.69;;;15.10;100.00
20003;BME280;10162;41.600;23.806;2023-06-01T05:48:36;95437.78;;;15.01;100.00
20003;BME280;10162;41.600;23.806;2023-06-01T05:51:03;95442.09;;;15.20;100.00
20003;BME280;10162;41.600;23.806;2023-06-01T05:53:29;95425.09;;;15.66;100.00
20003;BME280;10162;41.600;23.806;2023-06-01T05:55:55;95443.97;;;15.81;100.00
20003;BME280;10162;41.600;23.806;2023-06-01T05:58:22;95417.31;;;15.71;100.00
20003;BME280;10162;41.600;23.806;2023-06-01T06:01:21;95442.97;;;15.82;100.00
20003;BME280;10162;41.600;23.806;2023-06-01T06:03:48;95445.88;;;15.74;100.00
20003;BME280;10162;41.600;23.806;2023-06-01T06:06:13;95433.13;;;16.07;100.00
20003;BME280;10162;41.600;23.806;2023-06-01T06:08:39;95427.06;;;15.89;100.00
20003;BME280;10162;41.600;23.806;2023-06-01T06:11:05;95423.81;;;16.23;100.00
20003;BME280;10162;41.600;23.806;2023-06-01T06:13:32;95438.59;;;16.24;100.00
20003;BME280;10162;41.600;23.806;2023-06-01T06:15:58;95422.22;;;16.04;100.00
20003;BME280;10162;41.600;23.806;2023-06-01T06:18:24;95434.97;;;16.55;100.00
20003;BME280;10162;41.600;23.806;2023-06-01T06:20:51;95431.91;;;17.00;100.00
20003;BME280;10162;41.600;23.806;2023-06-01T06:23:19;95431.53;;;16.84;100.00
20003;BME280;10162;41.600;23.806;2023-06-01T06:25:46;95405.72;;;16.57;100.00
20003;BME280;10162;41.600;23.806;2023-06-01T06:28:15;95441.84;;;16.86;100.00
20003;BME280;10162;41.600;23.806;2023-06-01T06:30:40;95424.38;;;16.73;100.00
20003;BME280;10162;41.600;23.806;2023-06-01T06:33:06;95420.22;;;17.07;100.00
20003;BME280;10162;41.600;23.806;2023-06-01T06:35:32;95431.03;;;17.17;100.00
20003;BME280;10162;41.600;23.806;2023-06-01T06:37:59;95405.06;;;17.49;100.00
20003;BME280;10162;41.600;23.806;2023-06-01T06:40:42;95404.84;;;17.62;100.00
20003;BME280;10162;41.600;23.806;2023-06-01T06:43:08;95406.09;;;17.71;100.00
20003;BME280;10162;41.600;23.806;2023-06-01T06:45:34;95409.78;;;17.94;100.00
20003;BME280;10162;41.600;23.806;2023-06-01T06:48:01;95401.97;;;18.27;100.00
20003;BME280;10162;41.600;23.806;2023-06-01T06:50:29;95400.44;;;17.91;100.00
20003;BME280;10162;41.600;23.806;2023-06-01T06:52:56;95402.25;;;18.02;100.00
20003;BME280;10162;41.600;23.806;2023-06-01T06:55:22;95404.72;;;18.32;100.00
20003;BME280;10162;41.600;23.806;2023-06-01T06:57:47;95391.16;;;18.17;100.00
20003;BME280;10162;41.600;23.806;2023-06-01T07:00:13;95408.34;;;18.54;100.00
20003;BME280;10162;41.600;23.806;2023-06-01T07:02:41;95415.09;;;18.62;100.00
20003;BME280;10162;41.600;23.806;2023-06-01T07:05:07;95419.16;;;18.98;100.00
20003;BME280;10162;41.600;23.806;2023-06-01T07:07:34;95416.56;;;18.86;100.00
20003;BME280;10162;41.600;23.806;2023-06-01T07:10:00;95395.28;;;19.31;100.00
20003;BME280;10162;41.600;23.806;2023-06-01T07:12:29;95400.13;;;19.18;100.00
20003;BME280;10162;41.600;23.806;2023-06-01T07:14:55;95400.75;;;19.08;100.00
20003;BME280;10162;41.600;23.806;2023-06-01T07:17:22;95395.88;;;19.17;100.00
20003;BME280;10162;41.600;23.806;2023-06-01T07:19:48;95399.34;;;19.51;100.00
20003;BME280;10162;41.600;23.806;2023-06-01T07:22:15;95396.69;;;19.51;100.00
20003;BME280;10162;41.600;23.806;2023-06-01T07:24:42;95391.75;;;19.98;100.00
20003;BME280;10162;41.600;23.806;2023-06-01T07:27:08;95394.03;;;19.34;100.00
20003;BME280;10162;41.600;23.806;2023-06-01T07:29:34;95392.13;;;19.46;100.00
20003;BME280;10162;41.600;23.806;2023-06-01T07:32:02;95393.78;;;19.52;100.00
20003;BME280;10162;41.600;23.806;2023-06-01T07:34:28;95384.22;;;19.34;100.00
20003;BME280;10162;41.600;23.806;2023-06-01T07:36:55;95393.31;;;20.15;100.00
20003;BME280;10162;41.600;23.806;2023-06-01T07:39:24;95390.38;;;20.17;100.00
20003;BME280;10162;41.600;23.806;2023-06-01T07:41:51;95383.53;;;20.43;98.58
20003;BME280;10162;41.600;23.806;2023-06-01T07:44:19;95382.13;;;20.62;96.97
20003;BME280;10162;41.600;23.806;2023-06-01T07:46:46;95367.16;;;20.78;94.15
20003;BME280;10162;41.600;23.806;2023-06-01T07:49:13;95376.53;;;20.58;92.61
20003;BME280;10162;41.600;23.806;2023-06-01T07:51:44;95374.59;;;20.81;91.84
20003;BME280;10162;41.600;23.806;2023-06-01T07:54:10;95372.03;;;20.91;91.40
20003;BME280;10162;41.600;23.806;2023-06-01T07:56:36;95364.31;;;21.16;94.50
20003;BME280;10162;41.600;23.806;2023-06-01T07:59:02;95373.09;;;21.59;89.86
20003;BME280;10162;41.600;23.806;2023-06-01T08:01:31;95359.41;;;21.35;88.00
20003;BME280;10162;41.600;23.806;2023-06-01T08:03:58;95363.63;;;21.36;88.94
20003;BME280;10162;41.600;23.806;2023-06-01T08:06:24;95351.31;;;21.67;87.71
20003;BME280;10162;41.600;23.806;2023-06-01T08:08:51;95361.50;;;21.75;86.49
20003;BME280;10162;41.600;23.806;2023-06-01T08:11:18;95356.25;;;21.43;87.39
20003;BME280;10162;41.600;23.806;2023-06-01T08:13:48;95361.72;;;20.94;90.25
20003;BME280;10162;41.600;23.806;2023-06-01T08:16:13;95345.19;;;21.61;91.28
20003;BME280;10162;41.600;23.806;2023-06-01T08:18:41;95360.94;;;22.30;89.48
20003;BME280;10162;41.600;23.806;2023-06-01T08:21:09;95351.81;;;22.16;85.48
20003;BME280;10162;41.600;23.806;2023-06-01T08:23:35;95353.22;;;21.76;82.26
20003;BME280;10162;41.600;23.806;2023-06-01T08:26:01;95351.69;;;21.85;81.14
20003;BME280;10162;41.600;23.806;2023-06-01T08:28:27;95337.16;;;22.03;76.26
20003;BME280;10162;41.600;23.806;2023-06-01T08:30:59;95347.69;;;21.83;69.12
20003;BME280;10162;41.600;23.806;2023-06-01T08:33:26;95347.59;;;22.20;67.67
20003;BME280;10162;41.600;23.806;2023-06-01T08:35:51;95352.09;;;22.14;66.19
20003;BME280;10162;41.600;23.806;2023-06-01T08:38:18;95341.03;;;22.58;70.29
20003;BME280;10162;41.600;23.806;2023-06-01T08:40:56;95359.41;;;22.54;65.54
20003;BME280;10162;41.600;23.806;2023-06-01T08:43:27;95331.66;;;22.40;62.54
20003;BME280;10162;41.600;23.806;2023-06-01T08:45:57;95342.06;;;22.52;63.05
20003;BME280;10162;41.600;23.806;2023-06-01T08:48:24;95325.25;;;22.31;64.58
20003;BME280;10162;41.600;23.806;2023-06-01T08:58:39;95337.88;;;23.22;57.27
20003;BME280;10162;41.600;23.806;2023-06-01T09:01:16;95341.84;;;23.50;59.21
20003;BME280;10162;41.600;23.806;2023-06-01T09:03:44;95320.50;;;23.50;56.99
20003;BME280;10162;41.600;23.806;2023-06-01T09:06:10;95330.91;;;23.51;53.96
20003;BME280;10162;41.600;23.806;2023-06-01T09:08:38;95329.31;;;23.55;54.16
20003;BME280;10162;41.600;23.806;2023-06-01T09:11:04;95313.53;;;23.59;54.68
20003;BME280;10162;41.600;23.806;2023-06-01T09:13:33;95334.66;;;23.15;54.23
20003;BME280;10162;41.600;23.806;2023-06-01T09:15:59;95312.50;;;23.24;54.05
20003;BME280;10162;41.600;23.806;2023-06-01T09:18:26;95315.69;;;23.36;51.48
20003;BME280;10162;41.600;23.806;2023-06-01T09:20:52;95312.91;;;23.92;52.87
20003;BME280;10162;41.600;23.806;2023-06-01T09:23:26;95316.47;;;23.62;53.36
20003;BME280;10162;41.600;23.806;2023-06-01T09:26:10;95316.66;;;23.86;52.31
20003;BME280;10162;41.600;23.806;2023-06-01T09:34:16;95299.81;;;23.91;47.54
20003;BME280;10162;41.600;23.806;2023-06-01T09:36:51;95299.34;;;24.33;47.31
20003;BME280;10162;41.600;23.806;2023-06-01T09:39:19;95305.59;;;24.18;45.36
20003;BME280;10162;41.600;23.806;2023-06-01T09:41:57;95282.75;;;24.41;46.51
20003;BME280;10162;41.600;23.806;2023-06-01T09:47:04;95304.63;;;24.48;44.93
20003;BME280;10162;41.600;23.806;2023-06-01T09:49:44;95293.06;;;24.57;46.88
20003;BME280;10162;41.600;23.806;2023-06-01T09:55:05;95288.78;;;24.95;48.42
20003;BME280;10162;41.600;23.806;2023-06-01T09:57:32;95275.22;;;24.82;50.10
20003;BME280;10162;41.600;23.806;2023-06-01T10:00:00;95265.00;;;24.55;46.50
20003;BME280;10162;41.600;23.806;2023-06-01T10:02:37;95257.72;;;24.99;49.09
20003;BME280;10162;41.600;23.806;2023-06-01T10:05:04;95262.88;;;24.86;44.21
20003;BME280;10162;41.600;23.806;2023-06-01T10:07:31;95253.19;;;24.95;47.05
20003;BME280;10162;41.600;23.806;2023-06-01T10:10:00;95253.72;;;24.97;48.63
20003;BME280;10162;41.600;23.806;2023-06-01T10:12:33;95267.38;;;25.24;48.21
20003;BME280;10162;41.600;23.806;2023-06-01T10:15:00;95261.06;;;24.81;47.38
20003;BME280;10162;41.600;23.806;2023-06-01T10:17:26;95245.97;;;24.61;49.53
20003;BME280;10162;41.600;23.806;2023-06-01T10:19:53;95239.09;;;24.84;43.29
20003;BME280;10162;41.600;23.806;2023-06-01T10:22:29;95241.16;;;24.63;46.99
20003;BME280;10162;41.600;23.806;2023-06-01T10:24:58;95225.69;;;24.94;47.60
20003;BME280;10162;41.600;23.806;2023-06-01T10:27:50;95222.63;;;24.72;49.74
20003;BME280;10162;41.600;23.806;2023-06-01T10:30:17;95222.06;;;24.75;46.14
20003;BME280;10162;41.600;23.806;2023-06-01T10:32:45;95236.31;;;25.28;47.64
20003;BME280;10162;41.600;23.806;2023-06-01T10:56:25;95187.22;;;25.38;45.00
20003;BME280;10162;41.600;23.806;2023-06-01T10:59:11;95185.50;;;24.99;47.14
20003;BME280;10162;41.600;23.806;2023-06-01T11:14:06;95161.03;;;25.77;46.28
20003;BME280;10162;41.600;23.806;2023-06-01T11:16:34;95157.97;;;25.65;42.10
20003;BME280;10162;41.600;23.806;2023-06-01T11:19:04;95157.81;;;25.75;44.82
20003;BME280;10162;41.600;23.806;2023-06-01T11:25:26;95148.22;;;25.93;44.67
20003;BME280;10162;41.600;23.806;2023-06-01T11:27:53;95157.84;;;26.13;42.52
20003;BME280;10162;41.600;23.806;2023-06-01T11:30:20;95144.72;;;25.92;44.59
20003;BME280;10162;41.600;23.806;2023-06-01T11:32:49;95137.72;;;25.97;43.55
20003;BME280;10162;41.600;23.806;2023-06-01T11:35:18;95146.81;;;26.33;43.73
20003;BME280;10162;41.600;23.806;2023-06-01T11:37:44;95134.00;;;26.30;41.94
20003;BME280;10162;41.600;23.806;2023-06-01T11:40:12;95128.00;;;26.52;43.72
20003;BME280;10162;41.600;23.806;2023-06-01T11:42:39;95125.88;;;26.81;44.27
20003;BME280;10162;41.600;23.806;2023-06-01T11:45:06;95123.53;;;26.47;43.19
20003;BME280;10162;41.600;23.806;2023-06-01T11:47:33;95110.50;;;26.22;43.58
20003;BME280;10162;41.600;23.806;2023-06-01T11:50:00;95116.91;;;26.58;42.20
20003;BME280;10162;41.600;23.806;2023-06-01T11:52:29;95118.38;;;26.51;43.45
20003;BME280;10162;41.600;23.806;2023-06-01T11:55:02;95107.53;;;26.42;42.15
20003;BME280;10162;41.600;23.806;2023-06-01T11:57:28;95109.56;;;26.64;43.17
20003;BME280;10162;41.600;23.806;2023-06-01T11:59:53;95096.72;;;26.61;41.96
20003;BME280;10162;41.600;23.806;2023-06-01T12:02:25;95092.66;;;26.77;41.71
20003;BME280;10162;41.600;23.806;2023-06-01T12:04:58;95106.72;;;27.01;41.91
20003;BME280;10162;41.600;23.806;2023-06-01T12:07:25;95097.81;;;26.46;42.66
20003;BME280;10162;41.600;23.806;2023-06-01T12:09:55;95093.66;;;26.67;41.95
20003;BME280;10162;41.600;23.806;2023-06-01T12:12:24;95091.31;;;27.07;43.96
20003;BME280;10162;41.600;23.806;2023-06-01T12:14:50;95093.28;;;27.29;40.45
20003;BME280;10162;41.600;23.806;2023-06-01T12:17:18;95098.78;;;27.51;39.35
20003;BME280;10162;41.600;23.806;2023-06-01T12:19:45;95086.41;;;27.86;37.09
20003;BME280;10162;41.600;23.806;2023-06-01T12:22:30;95083.81;;;28.39;38.63
20003;BME280;10162;41.600;23.806;2023-06-01T12:25:04;95067.25;;;27.79;40.53
20003;BME280;10162;41.600;23.806;2023-06-01T12:27:31;95068.34;;;27.78;41.13
20003;BME280;10162;41.600;23.806;2023-06-01T12:29:59;95059.13;;;27.92;41.64
20003;BME280;10162;41.600;23.806;2023-06-01T12:32:37;95060.81;;;27.66;40.03
20003;BME280;10162;41.600;23.806;2023-06-01T12:38:14;95056.50;;;28.01;39.70
20003;BME280;10162;41.600;23.806;2023-06-01T12:40:39;95037.34;;;28.16;39.02
20003;BME280;10162;41.600;23.806;2023-06-01T12:43:17;95040.84;;;27.81;40.23
20003;BME280;10162;41.600;23.806;2023-06-01T12:45:45;95062.09;;;27.91;38.88
20003;BME280;10162;41.600;23.806;2023-06-01T12:48:29;95066.59;;;27.95;38.40
20003;BME280;10162;41.600;23.806;2023-06-01T12:51:00;95068.22;;;28.19;38.49
20003;BME280;10162;41.600;23.806;2023-06-01T12:53:29;95058.06;;;28.16;39.50
20003;BME280;10162;41.600;23.806;2023-06-01T12:55:55;95037.88;;;28.58;38.87
20003;BME280;10162;41.600;23.806;2023-06-01T12:58:22;95041.19;;;28.24;39.71
20003;BME280;10162;41.600;23.806;2023-06-01T13:01:01;95054.75;;;28.50;37.22
20003;BME280;10162;41.600;23.806;2023-06-01T13:03:28;95031.94;;;29.26;36.85
20003;BME280;10162;41.600;23.806;2023-06-01T13:05:55;95049.31;;;29.11;37.05
20003;BME280;10162;41.600;23.806;2023-06-01T13:08:22;94996.22;;;28.86;35.53
20003;BME280;10162;41.600;23.806;2023-06-01T13:10:57;95048.63;;;29.63;35.17
20003;BME280;10162;41.600;23.806;2023-06-01T13:13:23;94992.22;;;29.66;35.10
20003;BME280;10162;41.600;23.806;2023-06-01T13:15:49;94992.19;;;29.32;34.83
20003;BME280;10162;41.600;23.806;2023-06-01T13:18:15;95025.31;;;30.10;33.76
20003;BME280;10162;41.600;23.806;2023-06-01T13:21:00;94993.44;;;28.69;35.44
20003;BME280;10162;41.600;23.806;2023-06-01T13:23:28;94999.03;;;29.55;35.38
20003;BME280;10162;41.600;23.806;2023-06-01T13:25:54;95004.44;;;29.55;35.05
20003;BME280;10162;41.600;23.806;2023-06-01T13:28:20;94992.66;;;29.68;34.63
20003;BME280;10162;41.600;23.806;2023-06-01T13:30:49;95038.41;;;30.54;33.69
20003;BME280;10162;41.600;23.806;2023-06-01T13:33:16;95031.00;;;30.81;34.23
20003;BME280;10162;41.600;23.806;2023-06-01T13:35:42;95010.41;;;29.26;35.67
20003;BME280;10162;41.600;23.806;2023-06-01T13:38:09;95000.09;;;28.32;38.08
20003;BME280;10162;41.600;23.806;2023-06-01T13:40:37;95043.66;;;27.53;39.22
20003;BME280;10162;41.600;23.806;2023-06-01T13:43:03;95020.63;;;26.43;40.92
20003;BME280;10162;41.600;23.806;2023-06-01T13:45:28;95027.06;;;25.45;40.98
20003;BME280;10162;41.600;23.806;2023-06-01T13:47:54;95017.81;;;24.23;42.91
20003;BME280;10162;41.600;23.806;2023-06-01T13:50:30;95016.31;;;24.12;45.06
20003;BME280;10162;41.600;23.806;2023-06-01T13:52:57;95018.25;;;24.36;44.85
20003;BME280;10162;41.600;23.806;2023-06-01T13:55:23;95004.81;;;23.83;46.22
20003;BME280;10162;41.600;23.806;2023-06-01T13:57:51;95010.97;;;23.83;45.20
20003;BME280;10162;41.600;23.806;2023-06-01T14:00:17;95018.69;;;23.85;45.88
20003;BME280;10162;41.600;23.806;2023-06-01T14:02:43;95003.16;;;23.87;46.16
20003;BME280;10162;41.600;23.806;2023-06-01T14:05:09;95011.91;;;23.64;46.49
20003;BME280;10162;41.600;23.806;2023-06-01T14:07:37;94997.75;;;22.70;47.13
20003;BME280;10162;41.600;23.806;2023-06-01T14:10:03;95007.78;;;22.19;50.92
20003;BME280;10162;41.600;23.806;2023-06-01T14:12:32;95022.16;;;21.88;55.29
20003;BME280;10162;41.600;23.806;2023-06-01T14:14:58;95018.44;;;21.48;60.45
20003;BME280;10162;41.600;23.806;2023-06-01T14:17:24;95005.94;;;21.59;62.57
20003;BME280;10162;41.600;23.806;2023-06-01T14:19:50;95004.88;;;21.50;64.35
20003;BME280;10162;41.600;23.806;2023-06-01T14:22:20;94983.00;;;21.12;64.41
20003;BME280;10162;41.600;23.806;2023-06-01T14:24:46;95009.94;;;21.66;61.98
20003;BME280;10162;41.600;23.806;2023-06-01T14:27:12;95005.69;;;21.85;56.46
20003;BME280;10162;41.600;23.806;2023-06-01T14:29:37;95000.09;;;21.87;59.40
20003;BME280;10162;41.600;23.806;2023-06-01T14:32:05;95006.06;;;22.58;57.37
20003;BME280;10162;41.600;23.806;2023-06-01T14:34:31;95000.75;;;22.58;58.36
20003;BME280;10162;41.600;23.806;2023-06-01T14:36:56;95004.94;;;22.70;56.87
20003;BME280;10162;41.600;23.806;2023-06-01T14:39:23;95008.97;;;22.62;55.81
20003;BME280;10162;41.600;23.806;2023-06-01T14:41:57;95023.38;;;22.56;56.00
20003;BME280;10162;41.600;23.806;2023-06-01T14:44:23;95003.53;;;22.13;55.05
20003;BME280;10162;41.600;23.806;2023-06-01T14:46:49;95009.34;;;22.35;53.34
20003;BME280;10162;41.600;23.806;2023-06-01T14:49:15;94994.44;;;22.24;52.94
20003;BME280;10162;41.600;23.806;2023-06-01T14:54:53;94996.56;;;22.37;52.06
20003;BME280;10162;41.600;23.806;2023-06-01T14:57:19;94985.03;;;22.52;52.82
20003;BME280;10162;41.600;23.806;2023-06-01T14:59:47;94988.47;;;22.57;54.04
20003;BME280;10162;41.600;23.806;2023-06-01T15:02:33;94999.13;;;22.62;54.62